sensor_id;sensor_type;location;lat;lon;timestamp;P1;durP1;ratioP1;P2;durP2;ratioP2
25153;SDS011;47555;51.038;6.280;2023-07-31T00:00:37;9.10;;;3.78;;
25153;SDS011;47555;51.038;6.280;2023-07-31T00:03:03;8.15;;;3.67;;
25153;SDS011;47555;51.038;6.280;2023-07-31T00:05:29;8.35;;;3.65;;
25153;SDS011;47555;51.038;6.280;2023-07-31T00:07:55;9.10;;;3.80;;
25153;SDS011;47555;51.038;6.280;2023-07-31T00:10:21;9.18;;;3.67;;
25153;SDS011;47555;51.038;6.280;2023-07-31T00:12:47;9.50;;;4.30;;
25153;SDS011;47555;51.038;6.280;2023-07-31T00:15:14;11.30;;;3.70;;
25153;SDS011;47555;51.038;6.280;2023-07-31T00:17:40;8.32;;;3.55;;
25153;SDS011;47555;51.038;6.280;2023-07-31T00:20:06;11.07;;;3.78;;
25153;SDS011;47555;51.038;6.280;2023-07-31T00:22:32;10.07;;;3.83;;
25153;SDS011;47555;51.038;6.280;2023-07-31T00:24:58;8.98;;;3.50;;
25153;SDS011;47555;51.038;6.280;2023-07-31T00:27:24;9.60;;;4.05;;
25153;SDS011;47555;51.038;6.280;2023-07-31T00:29:53;10.55;;;3.15;;
25153;SDS011;47555;51.038;6.280;2023-07-31T00:32:19;7.40;;;3.50;;
25153;SDS011;47555;51.038;6.280;2023-07-31T00:34:45;11.48;;;3.58;;
25153;SDS011;47555;51.038;6.280;2023-07-31T00:37:11;5.55;;;3.10;;
25153;SDS011;47555;51.038;6.280;2023-07-31T00:39:37;8.27;;;3.20;;
25153;SDS011;47555;51.038;6.280;2023-07-31T00:42:03;8.02;;;3.13;;
25153;SDS011;47555;51.038;6.280;2023-07-31T00:44:29;10.30;;;3.45;;
25153;SDS011;47555;51.038;6.280;2023-07-31T00:46:55;11.07;;;3.60;;
25153;SDS011;47555;51.038;6.280;2023-07-31T00:49:24;8.25;;;3.22;;
25153;SDS011;47555;51.038;6.280;2023-07-31T00:51:50;11.13;;;3.22;;
25153;SDS011;47555;51.038;6.280;2023-07-31T00:54:16;8.63;;;3.53;;
25153;SDS011;47555;51.038;6.280;2023-07-31T00:56:42;6.72;;;3.30;;
25153;SDS011;47555;51.038;6.280;2023-07-31T00:59:10;9.70;;;3.80;;
25153;SDS011;47555;51.038;6.280;2023-07-31T01:01:36;13.15;;;3.75;;
25153;SDS011;47555;51.038;6.280;2023-07-31T01:04:02;7.68;;;3.03;;
25153;SDS011;47555;51.038;6.280;2023-07-31T01:06:31;10.90;;;4.35;;
25153;SDS011;47555;51.038;6.280;2023-07-31T01:11:29;8.88;;;3.70;;
25153;SDS011;47555;51.038;6.280;2023-07-31T01:13:56;7.80;;;3.55;;
25153;SDS011;47555;51.038;6.280;2023-07-31T01:16:22;8.32;;;3.10;;
25153;SDS011;47555;51.038;6.280;2023-07-31T01:18:48;6.78;;;3.00;;
25153;SDS011;47555;51.038;6.280;2023-07-31T01:23:49;9.98;;;3.63;;
25153;SDS011;47555;51.038;6.280;2023-07-31T01:26:21;8.10;;;3.47;;
25153;SDS011;47555;51.038;6.280;2023-07-31T01:29:01;10.23;;;3.38;;
25153;SDS011;47555;51.038;6.280;2023-07-31T01:31:28;8.55;;;3.55;;
25153;SDS011;47555;51.038;6.280;2023-07-31T01:33:56;10.35;;;4.13;;
25153;SDS011;47555;51.038;6.280;2023-07-31T01:36:23;11.65;;;3.63;;
25153;SDS011;47555;51.038;6.280;2023-07-31T01:38:49;6.70;;;3.55;;
25153;SDS011;47555;51.038;6.280;2023-07-31T01:41:18;9.32;;;3.53;;
25153;SDS011;47555;51.038;6.280;2023-07-31T01:43:47;10.07;;;3.38;;
25153;SDS011;47555;51.038;6.280;2023-07-31T01:46:14;8.60;;;3.22;;
25153;SDS011;47555;51.038;6.280;2023-07-31T01:48:39;8.48;;;3.47;;
25153;SDS011;47555;51.038;6.280;2023-07-31T01:51:05;10.05;;;3.58;;
25153;SDS011;47555;51.038;6.280;2023-07-31T01:53:31;8.32;;;3.67;;
25153;SDS011;47555;51.038;6.280;2023-07-31T01:55:57;7.90;;;3.28;;
25153;SDS011;47555;51.038;6.280;2023-07-31T01:58:23;6.55;;;3.03;;
25153;SDS011;47555;51.038;6.280;2023-07-31T02:00:49;6.28;;;3.30;;
25153;SDS011;47555;51.038;6.280;2023-07-31T02:03:15;10.52;;;3.90;;
25153;SDS011;47555;51.038;6.280;2023-07-31T02:05:45;7.75;;;3.40;;
25153;SDS011;47555;51.038;6.280;2023-07-31T02:10:39;10.45;;;3.72;;
25153;SDS011;47555;51.038;6.280;2023-07-31T02:13:05;7.18;;;3.45;;
25153;SDS011;47555;51.038;6.280;2023-07-31T02:15:31;8.23;;;3.50;;
25153;SDS011;47555;51.038;6.280;2023-07-31T02:17:57;11.45;;;3.30;;
25153;SDS011;47555;51.038;6.280;2023-07-31T02:20:24;14.90;;;4.28;;
25153;SDS011;47555;51.038;6.280;2023-07-31T02:22:50;5.68;;;3.58;;
25153;SDS011;47555;51.038;6.280;2023-07-31T02:25:16;9.63;;;3.80;;
25153;SDS011;47555;51.038;6.280;2023-07-31T02:27:42;6.78;;;3.28;;
25153;SDS011;47555;51.038;6.280;2023-07-31T02:30:08;7.95;;;3.72;;
25153;SDS011;47555;51.038;6.280;2023-07-31T02:32:34;8.25;;;4.13;;
25153;SDS011;47555;51.038;6.280;2023-07-31T02:35:00;7.95;;;3.60;;
25153;SDS011;47555;51.038;6.280;2023-07-31T02:37:26;7.75;;;3.17;;
25153;SDS011;47555;51.038;6.280;2023-07-31T02:39:53;9.57;;;4.40;;
25153;SDS011;47555;51.038;6.280;2023-07-31T02:42:19;6.90;;;3.47;;
25153;SDS011;47555;51.038;6.280;2023-07-31T02:44:45;6.50;;;3.08;;
25153;SDS011;47555;51.038;6.280;2023-07-31T02:47:11;9.43;;;3.78;;
25153;SDS011;47555;51.038;6.280;2023-07-31T02:49:37;8.40;;;3.78;;
25153;SDS011;47555;51.038;6.280;2023-07-31T02:52:03;8.25;;;3.97;;
25153;SDS011;47555;51.038;6.280;2023-07-31T02:54:29;9.52;;;3.85;;
25153;SDS011;47555;51.038;6.280;2023-07-31T02:56:55;10.50;;;4.15;;
25153;SDS011;47555;51.038;6.280;2023-07-31T02:59:21;6.72;;;3.00;;
25153;SDS011;47555;51.038;6.280;2023-07-31T03:01:47;10.30;;;3.78;;
25153;SDS011;47555;51.038;6.280;2023-07-31T03:04:13;8.32;;;4.03;;
25153;SDS011;47555;51.038;6.280;2023-07-31T03:06:39;7.85;;;4.00;;
25153;SDS011;47555;51.038;6.280;2023-07-31T03:09:05;8.80;;;3.95;;
25153;SDS011;47555;51.038;6.280;2023-07-31T03:11:31;10.15;;;3.95;;
25153;SDS011;47555;51.038;6.280;2023-07-31T03:13:57;9.52;;;4.00;;
25153;SDS011;47555;51.038;6.280;2023-07-31T03:16:23;8.25;;;4.20;;
25153;SDS011;47555;51.038;6.280;2023-07-31T03:18:49;6.97;;;3.58;;
25153;SDS011;47555;51.038;6.280;2023-07-31T03:21:15;8.93;;;3.85;;
25153;SDS011;47555;51.038;6.280;2023-07-31T03:23:41;9.18;;;3.90;;
25153;SDS011;47555;51.038;6.280;2023-07-31T03:26:08;10.00;;;4.00;;
25153;SDS011;47555;51.038;6.280;2023-07-31T03:28:34;8.43;;;3.63;;
25153;SDS011;47555;51.038;6.280;2023-07-31T03:31:00;9.35;;;3.97;;
25153;SDS011;47555;51.038;6.280;2023-07-31T03:33:26;9.68;;;3.92;;
25153;SDS011;47555;51.038;6.280;2023-07-31T03:35:52;7.18;;;3.15;;
25153;SDS011;47555;51.038;6.280;2023-07-31T03:38:18;10.68;;;3.80;;
25153;SDS011;47555;51.038;6.280;2023-07-31T03:40:44;8.20;;;3.88;;
25153;SDS011;47555;51.038;6.280;2023-07-31T03:43:10;7.28;;;4.18;;
25153;SDS011;47555;51.038;6.280;2023-07-31T03:45:36;9.23;;;4.32;;
25153;SDS011;47555;51.038;6.280;2023-07-31T03:48:03;10.10;;;3.97;;
25153;SDS011;47555;51.038;6.280;2023-07-31T03:50:29;7.85;;;3.90;;
25153;SDS011;47555;51.038;6.280;2023-07-31T03:52:55;8.52;;;3.90;;
25153;SDS011;47555;51.038;6.280;2023-07-31T03:55:21;8.07;;;4.72;;
25153;SDS011;47555;51.038;6.280;2023-07-31T03:57:47;7.10;;;4.15;;
25153;SDS011;47555;51.038;6.280;2023-07-31T04:00:13;9.05;;;4.63;;
25153;SDS011;47555;51.038;6.280;2023-07-31T04:02:39;9.07;;;4.82;;
25153;SDS011;47555;51.038;6.280;2023-07-31T04:05:05;9.70;;;3.95;;
25153;SDS011;47555;51.038;6.280;2023-07-31T04:07:31;9.70;;;4.38;;
25153;SDS011;47555;51.038;6.280;2023-07-31T04:09:57;8.15;;;4.57;;
25153;SDS011;47555;51.038;6.280;2023-07-31T04:12:23;9.20;;;4.28;;
25153;SDS011;47555;51.038;6.280;2023-07-31T04:14:49;9.80;;;4.60;;
25153;SDS011;47555;51.038;6.280;2023-07-31T04:17:15;11.30;;;4.68;;
25153;SDS011;47555;51.038;6.280;2023-07-31T04:19:43;6.53;;;4.35;;
25153;SDS011;47555;51.038;6.280;2023-07-31T04:22:08;6.18;;;3.75;;
25153;SDS011;47555;51.038;6.280;2023-07-31T04:24:34;11.68;;;4.40;;
25153;SDS011;47555;51.038;6.280;2023-07-31T04:27:00;6.45;;;4.35;;
25153;SDS011;47555;51.038;6.280;2023-07-31T04:29:26;5.63;;;3.50;;
25153;SDS011;47555;51.038;6.280;2023-07-31T04:31:52;7.32;;;4.18;;
25153;SDS011;47555;51.038;6.280;2023-07-31T04:34:18;7.80;;;3.92;;
25153;SDS011;47555;51.038;6.280;2023-07-31T04:36:44;9.43;;;4.32;;
25153;SDS011;47555;51.038;6.280;2023-07-31T04:39:10;6.05;;;4.15;;
25153;SDS011;47555;51.038;6.280;2023-07-31T04:41:36;7.65;;;3.78;;
25153;SDS011;47555;51.038;6.280;2023-07-31T04:44:02;9.75;;;4.18;;
25153;SDS011;47555;51.038;6.280;2023-07-31T04:46:28;9.15;;;3.63;;
25153;SDS011;47555;51.038;6.280;2023-07-31T04:48:54;9.32;;;4.35;;
25153;SDS011;47555;51.038;6.280;2023-07-31T04:51:20;6.18;;;3.58;;
25153;SDS011;47555;51.038;6.280;2023-07-31T04:53:48;10.43;;;4.45;;
25153;SDS011;47555;51.038;6.280;2023-07-31T04:56:14;8.55;;;4.35;;
25153;SDS011;47555;51.038;6.280;2023-07-31T04:58:40;8.65;;;3.90;;
25153;SDS011;47555;51.038;6.280;2023-07-31T05:01:06;8.07;;;3.83;;
25153;SDS011;47555;51.038;6.280;2023-07-31T05:03:32;6.97;;;4.22;;
25153;SDS011;47555;51.038;6.280;2023-07-31T05:05:58;8.25;;;4.32;;
25153;SDS011;47555;51.038;6.280;2023-07-31T05:08:24;7.10;;;3.80;;
25153;SDS011;47555;51.038;6.280;2023-07-31T05:10:50;7.22;;;3.97;;
25153;SDS011;47555;51.038;6.280;2023-07-31T05:13:16;6.60;;;3.38;;
25153;SDS011;47555;51.038;6.280;2023-07-31T05:15:42;7.57;;;3.83;;
25153;SDS011;47555;51.038;6.280;2023-07-31T05:18:08;7.38;;;4.00;;
25153;SDS011;47555;51.038;6.280;2023-07-31T05:20:34;7.25;;;3.90;;
25153;SDS011;47555;51.038;6.280;2023-07-31T05:23:00;7.50;;;3.72;;
25153;SDS011;47555;51.038;6.280;2023-07-31T05:25:26;7.82;;;3.53;;
25153;SDS011;47555;51.038;6.280;2023-07-31T05:27:52;4.88;;;3.45;;
25153;SDS011;47555;51.038;6.280;2023-07-31T05:30:18;8.70;;;3.40;;
25153;SDS011;47555;51.038;6.280;2023-07-31T05:32:44;4.78;;;3.20;;
25153;SDS011;47555;51.038;6.280;2023-07-31T05:35:10;6.10;;;3.88;;
25153;SDS011;47555;51.038;6.280;2023-07-31T05:37:36;6.30;;;3.50;;
25153;SDS011;47555;51.038;6.280;2023-07-31T05:40:02;9.32;;;4.18;;
25153;SDS011;47555;51.038;6.280;2023-07-31T05:42:28;6.55;;;3.50;;
25153;SDS011;47555;51.038;6.280;2023-07-31T05:44:54;10.70;;;4.05;;
25153;SDS011;47555;51.038;6.280;2023-07-31T05:47:19;5.60;;;3.35;;
25153;SDS011;47555;51.038;6.280;2023-07-31T05:49:45;9.68;;;3.47;;
25153;SDS011;47555;51.038;6.280;2023-07-31T05:52:11;8.18;;;3.55;;
25153;SDS011;47555;51.038;6.280;2023-07-31T05:54:37;6.10;;;2.70;;
25153;SDS011;47555;51.038;6.280;2023-07-31T05:57:03;6.60;;;3.17;;
25153;SDS011;47555;51.038;6.280;2023-07-31T05:59:29;5.78;;;3.05;;
25153;SDS011;47555;51.038;6.280;2023-07-31T06:01:58;4.35;;;3.20;;
25153;SDS011;47555;51.038;6.280;2023-07-31T06:04:24;5.63;;;3.40;;
25153;SDS011;47555;51.038;6.280;2023-07-31T06:06:50;7.57;;;3.88;;
25153;SDS011;47555;51.038;6.280;2023-07-31T06:09:16;5.18;;;3.05;;
25153;SDS011;47555;51.038;6.280;2023-07-31T06:11:42;7.57;;;3.60;;
25153;SDS011;47555;51.038;6.280;2023-07-31T06:14:08;8.95;;;3.42;;
25153;SDS011;47555;51.038;6.280;2023-07-31T06:16:34;6.45;;;2.95;;
25153;SDS011;47555;51.038;6.280;2023-07-31T06:19:00;7.75;;;3.60;;
25153;SDS011;47555;51.038;6.280;2023-07-31T06:21:26;6.47;;;3.28;;
25153;SDS011;47555;51.038;6.280;2023-07-31T06:23:52;9.25;;;3.60;;
25153;SDS011;47555;51.038;6.280;2023-07-31T06:26:18;6.53;;;3.63;;
25153;SDS011;47555;51.038;6.280;2023-07-31T06:28:44;11.55;;;3.65;;
25153;SDS011;47555;51.038;6.280;2023-07-31T06:31:10;7.13;;;3.75;;
25153;SDS011;47555;51.038;6.280;2023-07-31T06:33:36;7.22;;;3.75;;
25153;SDS011;47555;51.038;6.280;2023-07-31T06:36:02;10.60;;;3.88;;
25153;SDS011;47555;51.038;6.280;2023-07-31T06:38:28;6.93;;;3.83;;
25153;SDS011;47555;51.038;6.280;2023-07-31T06:40:54;8.55;;;3.47;;
25153;SDS011;47555;51.038;6.280;2023-07-31T06:43:20;6.97;;;3.53;;
25153;SDS011;47555;51.038;6.280;2023-07-31T06:45:46;8.02;;;3.25;;
25153;SDS011;47555;51.038;6.280;2023-07-31T06:48:15;6.50;;;3.20;;
25153;SDS011;47555;51.038;6.280;2023-07-31T06:50:41;6.60;;;3.20;;
25153;SDS011;47555;51.038;6.280;2023-07-31T06:53:07;6.43;;;3.60;;
25153;SDS011;47555;51.038;6.280;2023-07-31T06:55:33;7.53;;;3.35;;
25153;SDS011;47555;51.038;6.280;2023-07-31T06:57:59;7.47;;;3.15;;
25153;SDS011;47555;51.038;6.280;2023-07-31T07:00:25;5.82;;;3.40;;
25153;SDS011;47555;51.038;6.280;2023-07-31T07:02:51;11.40;;;3.22;;
25153;SDS011;47555;51.038;6.280;2023-07-31T07:05:17;9.68;;;3.80;;
25153;SDS011;47555;51.038;6.280;2023-07-31T07:07:43;7.35;;;3.60;;
25153;SDS011;47555;51.038;6.280;2023-07-31T07:10:09;9.77;;;3.58;;
25153;SDS011;47555;51.038;6.280;2023-07-31T07:12:35;10.45;;;3.67;;
25153;SDS011;47555;51.038;6.280;2023-07-31T07:15:01;8.50;;;3.97;;
25153;SDS011;47555;51.038;6.280;2023-07-31T07:17:28;7.45;;;3.70;;
25153;SDS011;47555;51.038;6.280;2023-07-31T07:19:56;9.43;;;3.38;;
25153;SDS011;47555;51.038;6.280;2023-07-31T07:22:22;7.32;;;3.45;;
25153;SDS011;47555;51.038;6.280;2023-07-31T07:24:48;6.18;;;3.47;;
25153;SDS011;47555;51.038;6.280;2023-07-31T07:27:14;6.53;;;3.70;;
25153;SDS011;47555;51.038;6.280;2023-07-31T07:29:40;8.85;;;3.30;;
25153;SDS011;47555;51.038;6.280;2023-07-31T07:32:06;8.02;;;3.42;;
25153;SDS011;47555;51.038;6.280;2023-07-31T07:34:32;8.45;;;3.70;;
25153;SDS011;47555;51.038;6.280;2023-07-31T07:36:58;5.78;;;3.03;;
25153;SDS011;47555;51.038;6.280;2023-07-31T07:39:24;5.97;;;3.63;;
25153;SDS011;47555;51.038;6.280;2023-07-31T07:41:50;6.70;;;3.20;;
25153;SDS011;47555;51.038;6.280;2023-07-31T07:44:15;5.47;;;3.30;;
25153;SDS011;47555;51.038;6.280;2023-07-31T07:46:41;5.90;;;3.40;;
25153;SDS011;47555;51.038;6.280;2023-07-31T07:49:07;7.25;;;3.90;;
25153;SDS011;47555;51.038;6.280;2023-07-31T07:51:34;6.88;;;2.95;;
25153;SDS011;47555;51.038;6.280;2023-07-31T07:54:00;5.18;;;3.05;;
25153;SDS011;47555;51.038;6.280;2023-07-31T07:56:26;6.38;;;3.25;;
25153;SDS011;47555;51.038;6.280;2023-07-31T07:58:52;6.03;;;3.15;;
25153;SDS011;47555;51.038;6.280;2023-07-31T08:01:18;6.53;;;3.03;;
25153;SDS011;47555;51.038;6.280;2023-07-31T08:03:44;6.10;;;2.80;;
25153;SDS011;47555;51.038;6.280;2023-07-31T08:06:10;5.90;;;3.60;;
25153;SDS011;47555;51.038;6.280;2023-07-31T08:08:37;7.78;;;3.88;;
25153;SDS011;47555;51.038;6.280;2023-07-31T08:11:02;7.32;;;3.22;;
25153;SDS011;47555;51.038;6.280;2023-07-31T08:13:28;6.85;;;3.80;;
25153;SDS011;47555;51.038;6.280;2023-07-31T08:15:54;8.20;;;3.75;;
25153;SDS011;47555;51.038;6.280;2023-07-31T08:18:20;5.22;;;3.53;;
25153;SDS011;47555;51.038;6.280;2023-07-31T08:20:46;7.90;;;3.70;;
25153;SDS011;47555;51.038;6.280;2023-07-31T08:23:13;4.60;;;3.10;;
25153;SDS011;47555;51.038;6.280;2023-07-31T08:25:39;7.32;;;3.30;;
25153;SDS011;47555;51.038;6.280;2023-07-31T08:28:05;4.88;;;3.55;;
25153;SDS011;47555;51.038;6.280;2023-07-31T08:30:31;5.60;;;3.28;;
25153;SDS011;47555;51.038;6.280;2023-07-31T08:32:58;9.82;;;3.40;;
25153;SDS011;47555;51.038;6.280;2023-07-31T08:35:24;6.95;;;3.28;;
25153;SDS011;47555;51.038;6.280;2023-07-31T08:37:50;5.93;;;3.20;;
25153;SDS011;47555;51.038;6.280;2023-07-31T08:40:16;6.13;;;3.38;;
25153;SDS011;47555;51.038;6.280;2023-07-31T08:42:43;7.53;;;3.58;;
25153;SDS011;47555;51.038;6.280;2023-07-31T08:45:09;7.70;;;3.50;;
25153;SDS011;47555;51.038;6.280;2023-07-31T08:47:36;8.90;;;3.83;;
25153;SDS011;47555;51.038;6.280;2023-07-31T08:50:03;7.70;;;3.70;;
25153;SDS011;47555;51.038;6.280;2023-07-31T08:52:29;6.13;;;3.70;;
25153;SDS011;47555;51.038;6.280;2023-07-31T08:54:55;7.90;;;3.25;;
25153;SDS011;47555;51.038;6.280;2023-07-31T08:57:21;8.57;;;4.00;;
25153;SDS011;47555;51.038;6.280;2023-07-31T08:59:49;4.90;;;3.30;;
25153;SDS011;47555;51.038;6.280;2023-07-31T09:02:15;8.38;;;3.50;;
25153;SDS011;47555;51.038;6.280;2023-07-31T09:04:41;7.93;;;3.30;;
25153;SDS011;47555;51.038;6.280;2023-07-31T09:07:07;6.97;;;3.53;;
25153;SDS011;47555;51.038;6.280;2023-07-31T09:09:34;4.75;;;3.10;;
25153;SDS011;47555;51.038;6.280;2023-07-31T09:12:00;5.13;;;3.50;;
25153;SDS011;47555;51.038;6.280;2023-07-31T09:14:27;5.13;;;3.30;;
25153;SDS011;47555;51.038;6.280;2023-07-31T09:16:54;5.10;;;3.33;;
25153;SDS011;47555;51.038;6.280;2023-07-31T09:19:27;7.15;;;3.75;;
25153;SDS011;47555;51.038;6.280;2023-07-31T09:21:53;8.30;;;3.60;;
25153;SDS011;47555;51.038;6.280;2023-07-31T09:24:26;4.97;;;2.90;;
25153;SDS011;47555;51.038;6.280;2023-07-31T09:26:53;5.70;;;3.28;;
25153;SDS011;47555;51.038;6.280;2023-07-31T09:29:20;6.15;;;3.20;;
25153;SDS011;47555;51.038;6.280;2023-07-31T09:31:46;7.00;;;2.85;;
25153;SDS011;47555;51.038;6.280;2023-07-31T09:34:12;5.43;;;3.10;;
25153;SDS011;47555;51.038;6.280;2023-07-31T09:36:45;5.15;;;2.90;;
25153;SDS011;47555;51.038;6.280;2023-07-31T09:39:11;4.28;;;3.00;;
25153;SDS011;47555;51.038;6.280;2023-07-31T09:41:41;5.70;;;3.15;;
25153;SDS011;47555;51.038;6.280;2023-07-31T09:44:07;5.85;;;2.80;;
25153;SDS011;47555;51.038;6.280;2023-07-31T09:46:37;7.72;;;3.55;;
25153;SDS011;47555;51.038;6.280;2023-07-31T09:49:06;5.93;;;2.88;;
25153;SDS011;47555;51.038;6.280;2023-07-31T09:51:34;5.50;;;3.10;;
25153;SDS011;47555;51.038;6.280;2023-07-31T09:54:03;8.85;;;3.70;;
25153;SDS011;47555;51.038;6.280;2023-07-31T09:56:29;5.30;;;3.03;;
25153;SDS011;47555;51.038;6.280;2023-07-31T09:58:56;7.13;;;3.80;;
25153;SDS011;47555;51.038;6.280;2023-07-31T10:01:22;5.85;;;3.38;;
25153;SDS011;47555;51.038;6.280;2023-07-31T10:03:48;6.10;;;3.50;;
25153;SDS011;47555;51.038;6.280;2023-07-31T10:06:15;6.15;;;3.58;;
25153;SDS011;47555;51.038;6.280;2023-07-31T10:08:44;6.93;;;3.38;;
25153;SDS011;47555;51.038;6.280;2023-07-31T10:11:13;8.23;;;3.63;;
25153;SDS011;47555;51.038;6.280;2023-07-31T10:13:40;5.90;;;3.20;;
25153;SDS011;47555;51.038;6.280;2023-07-31T10:16:07;7.22;;;3.42;;
25153;SDS011;47555;51.038;6.280;2023-07-31T10:18:33;7.47;;;3.20;;
25153;SDS011;47555;51.038;6.280;2023-07-31T10:21:00;4.45;;;2.95;;
25153;SDS011;47555;51.038;6.280;2023-07-31T10:23:26;5.38;;;2.88;;
25153;SDS011;47555;51.038;6.280;2023-07-31T10:25:52;4.82;;;2.78;;
25153;SDS011;47555;51.038;6.280;2023-07-31T10:28:19;4.25;;;2.65;;
25153;SDS011;47555;51.038;6.280;2023-07-31T10:30:46;6.28;;;3.05;;
25153;SDS011;47555;51.038;6.280;2023-07-31T10:33:12;3.17;;;1.88;;
25153;SDS011;47555;51.038;6.280;2023-07-31T10:35:38;4.00;;;2.03;;
25153;SDS011;47555;51.038;6.280;2023-07-31T10:38:11;4.70;;;2.28;;
25153;SDS011;47555;51.038;6.280;2023-07-31T10:40:37;4.13;;;1.83;;
25153;SDS011;47555;51.038;6.280;2023-07-31T10:43:03;3.75;;;1.80;;
25153;SDS011;47555;51.038;6.280;2023-07-31T10:45:42;3.28;;;2.25;;
25153;SDS011;47555;51.038;6.280;2023-07-31T10:50:37;3.80;;;1.83;;
25153;SDS011;47555;51.038;6.280;2023-07-31T10:53:04;2.83;;;1.58;;
25153;SDS011;47555;51.038;6.280;2023-07-31T10:55:33;2.97;;;1.70;;
25153;SDS011;47555;51.038;6.280;2023-07-31T10:58:06;1.75;;;1.40;;
25153;SDS011;47555;51.038;6.280;2023-07-31T11:00:33;1.60;;;1.38;;
25153;SDS011;47555;51.038;6.280;2023-07-31T11:03:02;2.28;;;1.50;;
25153;SDS011;47555;51.038;6.280;2023-07-31T11:08:13;3.00;;;1.50;;
25153;SDS011;47555;51.038;6.280;2023-07-31T11:10:39;1.70;;;1.40;;
25153;SDS011;47555;51.038;6.280;2023-07-31T11:13:05;3.35;;;1.60;;
25153;SDS011;47555;51.038;6.280;2023-07-31T11:15:31;2.08;;;1.70;;
25153;SDS011;47555;51.038;6.280;2023-07-31T11:17:57;3.78;;;1.90;;
25153;SDS011;47555;51.038;6.280;2023-07-31T11:20:24;3.22;;;2.10;;
25153;SDS011;47555;51.038;6.280;2023-07-31T11:22:49;1.83;;;1.60;;
25153;SDS011;47555;51.038;6.280;2023-07-31T11:25:16;3.65;;;2.13;;
25153;SDS011;47555;51.038;6.280;2023-07-31T11:27:42;2.13;;;1.55;;
25153;SDS011;47555;51.038;6.280;2023-07-31T11:30:08;2.75;;;1.75;;
25153;SDS011;47555;51.038;6.280;2023-07-31T11:32:37;2.92;;;1.63;;
25153;SDS011;47555;51.038;6.280;2023-07-31T11:35:04;1.85;;;1.65;;
25153;SDS011;47555;51.038;6.280;2023-07-31T11:37:43;3.00;;;1.83;;
25153;SDS011;47555;51.038;6.280;2023-07-31T11:40:10;3.28;;;2.00;;
25153;SDS011;47555;51.038;6.280;2023-07-31T11:42:37;2.17;;;1.60;;
25153;SDS011;47555;51.038;6.280;2023-07-31T11:45:06;3.03;;;2.10;;
25153;SDS011;47555;51.038;6.280;2023-07-31T11:47:32;2.60;;;1.95;;
25153;SDS011;47555;51.038;6.280;2023-07-31T11:50:02;2.25;;;1.70;;
25153;SDS011;47555;51.038;6.280;2023-07-31T11:52:29;5.82;;;2.60;;
25153;SDS011;47555;51.038;6.280;2023-07-31T11:54:56;3.97;;;2.28;;
25153;SDS011;47555;51.038;6.280;2023-07-31T11:57:22;4.78;;;2.42;;
25153;SDS011;47555;51.038;6.280;2023-07-31T11:59:49;3.85;;;2.38;;
25153;SDS011;47555;51.038;6.280;2023-07-31T12:02:15;3.28;;;2.08;;
25153;SDS011;47555;51.038;6.280;2023-07-31T12:04:42;5.55;;;2.50;;
25153;SDS011;47555;51.038;6.280;2023-07-31T12:07:08;4.45;;;2.70;;
25153;SDS011;47555;51.038;6.280;2023-07-31T12:09:34;4.72;;;2.88;;
25153;SDS011;47555;51.038;6.280;2023-07-31T12:12:00;4.85;;;2.50;;
25153;SDS011;47555;51.038;6.280;2023-07-31T12:14:27;4.65;;;2.67;;
25153;SDS011;47555;51.038;6.280;2023-07-31T12:16:56;4.70;;;2.80;;
25153;SDS011;47555;51.038;6.280;2023-07-31T12:19:23;7.43;;;3.30;;
25153;SDS011;47555;51.038;6.280;2023-07-31T12:21:49;7.03;;;2.97;;
25153;SDS011;47555;51.038;6.280;2023-07-31T12:24:17;5.20;;;3.40;;
25153;SDS011;47555;51.038;6.280;2023-07-31T12:26:44;4.50;;;2.90;;
25153;SDS011;47555;51.038;6.280;2023-07-31T12:29:11;5.75;;;3.22;;
25153;SDS011;47555;51.038;6.280;2023-07-31T12:31:41;4.82;;;2.65;;
25153;SDS011;47555;51.038;6.280;2023-07-31T12:34:17;3.92;;;2.88;;
25153;SDS011;47555;51.038;6.280;2023-07-31T12:36:43;4.43;;;2.95;;
25153;SDS011;47555;51.038;6.280;2023-07-31T12:39:10;5.78;;;3.20;;
25153;SDS011;47555;51.038;6.280;2023-07-31T12:41:36;4.90;;;3.25;;
25153;SDS011;47555;51.038;6.280;2023-07-31T12:44:02;6.10;;;3.17;;
25153;SDS011;47555;51.038;6.280;2023-07-31T12:46:28;5.50;;;2.92;;
25153;SDS011;47555;51.038;6.280;2023-07-31T12:48:54;3.88;;;2.70;;
25153;SDS011;47555;51.038;6.280;2023-07-31T12:51:20;4.95;;;2.70;;
25153;SDS011;47555;51.038;6.280;2023-07-31T12:53:46;6.07;;;2.63;;
25153;SDS011;47555;51.038;6.280;2023-07-31T12:56:12;5.00;;;2.70;;
25153;SDS011;47555;51.038;6.280;2023-07-31T12:58:38;4.32;;;2.92;;
25153;SDS011;47555;51.038;6.280;2023-07-31T13:01:05;4.15;;;2.50;;
25153;SDS011;47555;51.038;6.280;2023-07-31T13:03:31;5.10;;;3.08;;
25153;SDS011;47555;51.038;6.280;2023-07-31T13:05:57;4.53;;;2.90;;
25153;SDS011;47555;51.038;6.280;2023-07-31T13:08:23;4.60;;;2.63;;
25153;SDS011;47555;51.038;6.280;2023-07-31T13:10:49;4.55;;;2.65;;
25153;SDS011;47555;51.038;6.280;2023-07-31T13:13:15;5.22;;;3.03;;
25153;SDS011;47555;51.038;6.280;2023-07-31T13:15:41;6.53;;;2.92;;
25153;SDS011;47555;51.038;6.280;2023-07-31T13:18:07;4.35;;;2.42;;
25153;SDS011;47555;51.038;6.280;2023-07-31T13:20:33;7.55;;;3.20;;
25153;SDS011;47555;51.038;6.280;2023-07-31T13:22:59;4.43;;;2.80;;
25153;SDS011;47555;51.038;6.280;2023-07-31T13:25:25;5.13;;;2.70;;
25153;SDS011;47555;51.038;6.280;2023-07-31T13:27:51;3.75;;;2.60;;
25153;SDS011;47555;51.038;6.280;2023-07-31T13:30:17;5.32;;;3.13;;
25153;SDS011;47555;51.038;6.280;2023-07-31T13:32:43;4.68;;;2.85;;
25153;SDS011;47555;51.038;6.280;2023-07-31T13:35:09;4.13;;;2.58;;
25153;SDS011;47555;51.038;6.280;2023-07-31T13:37:37;4.03;;;2.63;;
25153;SDS011;47555;51.038;6.280;2023-07-31T13:40:03;3.28;;;2.28;;
25153;SDS011;47555;51.038;6.280;2023-07-31T13:42:32;5.78;;;2.78;;
25153;SDS011;47555;51.038;6.280;2023-07-31T13:44:58;5.30;;;2.50;;
25153;SDS011;47555;51.038;6.280;2023-07-31T13:47:24;4.43;;;2.28;;
25153;SDS011;47555;51.038;6.280;2023-07-31T13:49:50;3.65;;;2.55;;
25153;SDS011;47555;51.038;6.280;2023-07-31T13:52:16;4.07;;;2.53;;
25153;SDS011;47555;51.038;6.280;2023-07-31T13:54:42;4.47;;;2.90;;
25153;SDS011;47555;51.038;6.280;2023-07-31T13:57:08;5.10;;;2.55;;
25153;SDS011;47555;51.038;6.280;2023-07-31T13:59:34;3.28;;;2.50;;
25153;SDS011;47555;51.038;6.280;2023-07-31T14:02:00;4.55;;;3.03;;
25153;SDS011;47555;51.038;6.280;2023-07-31T14:04:26;4.20;;;2.67;;
25153;SDS011;47555;51.038;6.280;2023-07-31T14:06:52;4.68;;;2.78;;
25153;SDS011;47555;51.038;6.280;2023-07-31T14:09:18;5.72;;;2.80;;
25153;SDS011;47555;51.038;6.280;2023-07-31T14:11:44;5.82;;;3.08;;
25153;SDS011;47555;51.038;6.280;2023-07-31T14:14:13;3.75;;;2.95;;
25153;SDS011;47555;51.038;6.280;2023-07-31T14:16:38;4.45;;;3.28;;
25153;SDS011;47555;51.038;6.280;2023-07-31T14:19:05;4.57;;;3.00;;
25153;SDS011;47555;51.038;6.280;2023-07-31T14:21:32;5.93;;;3.42;;
25153;SDS011;47555;51.038;6.280;2023-07-31T14:23:58;5.38;;;2.88;;
25153;SDS011;47555;51.038;6.280;2023-07-31T14:26:24;5.70;;;3.50;;
25153;SDS011;47555;51.038;6.280;2023-07-31T14:28:50;4.95;;;3.08;;
25153;SDS011;47555;51.038;6.280;2023-07-31T14:31:16;4.72;;;3.20;;
25153;SDS011;47555;51.038;6.280;2023-07-31T14:33:42;6.90;;;3.75;;
25153;SDS011;47555;51.038;6.280;2023-07-31T14:36:08;4.50;;;3.10;;
25153;SDS011;47555;51.038;6.280;2023-07-31T14:38:34;5.50;;;3.05;;
25153;SDS011;47555;51.038;6.280;2023-07-31T14:41:00;7.15;;;3.45;;
25153;SDS011;47555;51.038;6.280;2023-07-31T14:43:26;5.30;;;3.10;;
25153;SDS011;47555;51.038;6.280;2023-07-31T14:45:52;6.20;;;3.60;;
25153;SDS011;47555;51.038;6.280;2023-07-31T14:48:20;7.03;;;3.55;;
25153;SDS011;47555;51.038;6.280;2023-07-31T14:50:46;6.60;;;3.20;;
25153;SDS011;47555;51.038;6.280;2023-07-31T14:53:12;7.53;;;3.30;;